sensor_id;sensor_type;location;lat;lon;timestamp;P1;durP1;ratioP1;P2;durP2;ratioP2
62071;SDS011;48031;48.542;13.232;2023-07-09T00:01:25;6.88;;;3.33;;
62071;SDS011;48031;48.542;13.232;2023-07-09T00:05:27;3.92;;;2.88;;
62071;SDS011;48031;48.542;13.232;2023-07-09T00:09:29;4.65;;;3.75;;
62071;SDS011;48031;48.542;13.232;2023-07-09T00:13:31;5.40;;;3.35;;
62071;SDS011;48031;48.542;13.232;2023-07-09T00:17:34;6.05;;;3.97;;
62071;SDS011;48031;48.542;13.232;2023-07-09T00:21:37;5.65;;;3.50;;
62071;SDS011;48031;48.542;13.232;2023-07-09T00:25:39;6.35;;;3.63;;
62071;SDS011;48031;48.542;13.232;2023-07-09T00:29:43;4.60;;;3.75;;
62071;SDS011;48031;48.542;13.232;2023-07-09T00:33:45;5.88;;;3.65;;
62071;SDS011;48031;48.542;13.232;2023-07-09T00:37:48;5.57;;;3.78;;
62071;SDS011;48031;48.542;13.232;2023-07-09T00:41:50;5.30;;;3.40;;
62071;SDS011;48031;48.542;13.232;2023-07-09T00:50:33;5.00;;;3.58;;
62071;SDS011;48031;48.542;13.232;2023-07-09T00:54:37;5.30;;;3.90;;
62071;SDS011;48031;48.542;13.232;2023-07-09T00:58:43;5.55;;;3.47;;
62071;SDS011;48031;48.542;13.232;2023-07-09T01:02:49;4.30;;;3.30;;
62071;SDS011;48031;48.542;13.232;2023-07-09T01:06:52;7.80;;;3.65;;
62071;SDS011;48031;48.542;13.232;2023-07-09T01:10:57;6.65;;;4.40;;
62071;SDS011;48031;48.542;13.232;2023-07-09T01:15:03;5.27;;;3.87;;
62071;SDS011;48031;48.542;13.232;2023-07-09T01:19:07;6.55;;;3.55;;
62071;SDS011;48031;48.542;13.232;2023-07-09T01:23:09;5.85;;;3.78;;
62071;SDS011;48031;48.542;13.232;2023-07-09T01:27:12;4.28;;;3.47;;
62071;SDS011;48031;48.542;13.232;2023-07-09T01:31:14;5.50;;;3.88;;
62071;SDS011;48031;48.542;13.232;2023-07-09T01:35:19;8.85;;;4.03;;
62071;SDS011;48031;48.542;13.232;2023-07-09T01:39:24;5.32;;;3.75;;
62071;SDS011;48031;48.542;13.232;2023-07-09T01:43:30;6.38;;;4.22;;
62071;SDS011;48031;48.542;13.232;2023-07-09T01:47:35;5.40;;;3.97;;
62071;SDS011;48031;48.542;13.232;2023-07-09T01:51:38;4.72;;;3.70;;
62071;SDS011;48031;48.542;13.232;2023-07-09T01:55:40;6.82;;;4.03;;
62071;SDS011;48031;48.542;13.232;2023-07-09T01:59:42;6.97;;;3.75;;
62071;SDS011;48031;48.542;13.232;2023-07-09T02:03:45;8.82;;;4.05;;
62071;SDS011;48031;48.542;13.232;2023-07-09T02:07:49;6.60;;;3.75;;
62071;SDS011;48031;48.542;13.232;2023-07-09T02:11:51;4.97;;;3.83;;
62071;SDS011;48031;48.542;13.232;2023-07-09T02:15:53;5.97;;;4.07;;
62071;SDS011;48031;48.542;13.232;2023-07-09T02:19:55;4.93;;;3.67;;
62071;SDS011;48031;48.542;13.232;2023-07-09T02:23:58;5.28;;;3.67;;
62071;SDS011;48031;48.542;13.232;2023-07-09T02:28:00;5.20;;;3.67;;
62071;SDS011;48031;48.542;13.232;2023-07-09T02:32:04;6.93;;;3.85;;
62071;SDS011;48031;48.542;13.232;2023-07-09T02:36:06;4.50;;;3.53;;
62071;SDS011;48031;48.542;13.232;2023-07-09T02:40:08;4.32;;;3.42;;
62071;SDS011;48031;48.542;13.232;2023-07-09T02:44:12;5.75;;;4.05;;
62071;SDS011;48031;48.542;13.232;2023-07-09T02:48:15;5.28;;;3.85;;
62071;SDS011;48031;48.542;13.232;2023-07-09T02:52:17;5.85;;;4.05;;
62071;SDS011;48031;48.542;13.232;2023-07-09T02:56:20;4.38;;;3.25;;
62071;SDS011;48031;48.542;13.232;2023-07-09T03:00:23;7.78;;;4.05;;
62071;SDS011;48031;48.542;13.232;2023-07-09T03:04:25;4.88;;;3.88;;
62071;SDS011;48031;48.542;13.232;2023-07-09T03:08:27;6.40;;;3.80;;
62071;SDS011;48031;48.542;13.232;2023-07-09T03:12:30;5.03;;;3.67;;
62071;SDS011;48031;48.542;13.232;2023-07-09T03:16:33;4.88;;;3.75;;
62071;SDS011;48031;48.542;13.232;2023-07-09T03:20:38;5.88;;;3.95;;
62071;SDS011;48031;48.542;13.232;2023-07-09T03:24:42;5.97;;;3.78;;
62071;SDS011;48031;48.542;13.232;2023-07-09T03:28:44;4.80;;;4.10;;
62071;SDS011;48031;48.542;13.232;2023-07-09T03:32:46;7.38;;;4.60;;
62071;SDS011;48031;48.542;13.232;2023-07-09T03:36:49;4.97;;;3.65;;
62071;SDS011;48031;48.542;13.232;2023-07-09T03:40:51;5.13;;;3.60;;
62071;SDS011;48031;48.542;13.232;2023-07-09T03:44:55;7.10;;;3.75;;
62071;SDS011;48031;48.542;13.232;2023-07-09T03:49:01;4.82;;;3.75;;
62071;SDS011;48031;48.542;13.232;2023-07-09T03:53:07;5.23;;;3.93;;
62071;SDS011;48031;48.542;13.232;2023-07-09T03:57:09;4.95;;;4.10;;
62071;SDS011;48031;48.542;13.232;2023-07-09T04:01:11;9.63;;;3.95;;
62071;SDS011;48031;48.542;13.232;2023-07-09T04:05:14;5.03;;;3.80;;
62071;SDS011;48031;48.542;13.232;2023-07-09T04:09:17;5.13;;;3.30;;
62071;SDS011;48031;48.542;13.232;2023-07-09T04:13:20;6.85;;;3.90;;
62071;SDS011;48031;48.542;13.232;2023-07-09T04:17:26;4.43;;;3.78;;
62071;SDS011;48031;48.542;13.232;2023-07-09T04:21:28;4.75;;;3.70;;
62071;SDS011;48031;48.542;13.232;2023-07-09T04:25:30;6.05;;;4.00;;
62071;SDS011;48031;48.542;13.232;2023-07-09T04:29:33;7.25;;;4.40;;
62071;SDS011;48031;48.542;13.232;2023-07-09T04:33:40;6.10;;;4.00;;
62071;SDS011;48031;48.542;13.232;2023-07-09T04:37:42;5.28;;;4.13;;
62071;SDS011;48031;48.542;13.232;2023-07-09T04:41:44;5.18;;;3.80;;
62071;SDS011;48031;48.542;13.232;2023-07-09T04:45:47;7.35;;;4.68;;
62071;SDS011;48031;48.542;13.232;2023-07-09T04:49:53;4.93;;;3.95;;
62071;SDS011;48031;48.542;13.232;2023-07-09T04:53:55;5.57;;;4.45;;
62071;SDS011;48031;48.542;13.232;2023-07-09T04:57:57;5.25;;;4.32;;
62071;SDS011;48031;48.542;13.232;2023-07-09T05:01:59;6.25;;;4.68;;
62071;SDS011;48031;48.542;13.232;2023-07-09T05:06:02;9.15;;;4.68;;
62071;SDS011;48031;48.542;13.232;2023-07-09T05:10:06;5.30;;;4.72;;
62071;SDS011;48031;48.542;13.232;2023-07-09T05:14:09;5.47;;;4.53;;
62071;SDS011;48031;48.542;13.232;2023-07-09T05:18:15;6.18;;;4.78;;
62071;SDS011;48031;48.542;13.232;2023-07-09T05:22:18;7.75;;;4.78;;
62071;SDS011;48031;48.542;13.232;2023-07-09T05:26:20;6.18;;;4.45;;
62071;SDS011;48031;48.542;13.232;2023-07-09T05:30:22;6.18;;;4.78;;
62071;SDS011;48031;48.542;13.232;2023-07-09T05:34:25;4.45;;;4.05;;
62071;SDS011;48031;48.542;13.232;2023-07-09T05:38:27;4.90;;;4.28;;
62071;SDS011;48031;48.542;13.232;2023-07-09T05:42:30;8.88;;;4.30;;
62071;SDS011;48031;48.542;13.232;2023-07-09T05:46:36;10.00;;;4.13;;
62071;SDS011;48031;48.542;13.232;2023-07-09T05:50:43;8.20;;;4.25;;
62071;SDS011;48031;48.542;13.232;2023-07-09T05:54:45;6.60;;;4.57;;
62071;SDS011;48031;48.542;13.232;2023-07-09T05:58:48;6.38;;;4.20;;
62071;SDS011;48031;48.542;13.232;2023-07-09T06:02:50;5.82;;;4.40;;
62071;SDS011;48031;48.542;13.232;2023-07-09T06:06:53;4.70;;;3.97;;
62071;SDS011;48031;48.542;13.232;2023-07-09T06:10:58;6.65;;;4.60;;
62071;SDS011;48031;48.542;13.232;2023-07-09T06:15:02;5.88;;;4.70;;
62071;SDS011;48031;48.542;13.232;2023-07-09T06:19:06;5.28;;;4.75;;
62071;SDS011;48031;48.542;13.232;2023-07-09T06:23:08;6.35;;;4.93;;
62071;SDS011;48031;48.542;13.232;2023-07-09T06:27:10;6.18;;;4.75;;
62071;SDS011;48031;48.542;13.232;2023-07-09T06:31:12;6.38;;;5.13;;
62071;SDS011;48031;48.542;13.232;2023-07-09T06:35:15;6.88;;;5.05;;
62071;SDS011;48031;48.542;13.232;2023-07-09T06:39:18;5.50;;;4.93;;
62071;SDS011;48031;48.542;13.232;2023-07-09T06:43:20;6.25;;;4.95;;
62071;SDS011;48031;48.542;13.232;2023-07-09T06:47:23;8.90;;;5.68;;
62071;SDS011;48031;48.542;13.232;2023-07-09T06:51:25;6.45;;;5.43;;
62071;SDS011;48031;48.542;13.232;2023-07-09T06:55:27;7.18;;;4.88;;
62071;SDS011;48031;48.542;13.232;2023-07-09T06:59:29;8.45;;;4.80;;
62071;SDS011;48031;48.542;13.232;2023-07-09T07:03:32;6.55;;;4.60;;
62071;SDS011;48031;48.542;13.232;2023-07-09T07:07:35;10.23;;;5.18;;
62071;SDS011;48031;48.542;13.232;2023-07-09T07:11:37;8.57;;;5.07;;
62071;SDS011;48031;48.542;13.232;2023-07-09T07:15:39;8.48;;;5.18;;
62071;SDS011;48031;48.542;13.232;2023-07-09T07:19:41;5.38;;;4.07;;
62071;SDS011;48031;48.542;13.232;2023-07-09T07:23:43;6.35;;;4.55;;
62071;SDS011;48031;48.542;13.232;2023-07-09T07:27:46;5.93;;;4.57;;
62071;SDS011;48031;48.542;13.232;2023-07-09T07:31:48;7.35;;;4.78;;
62071;SDS011;48031;48.542;13.232;2023-07-09T07:35:50;6.18;;;4.53;;
62071;SDS011;48031;48.542;13.232;2023-07-09T07:40:12;9.85;;;5.38;;
62071;SDS011;48031;48.542;13.232;2023-07-09T07:44:14;7.00;;;5.00;;
62071;SDS011;48031;48.542;13.232;2023-07-09T07:48:17;7.30;;;4.80;;
62071;SDS011;48031;48.542;13.232;2023-07-09T07:52:20;8.68;;;5.65;;
62071;SDS011;48031;48.542;13.232;2023-07-09T07:56:22;9.18;;;5.57;;
62071;SDS011;48031;48.542;13.232;2023-07-09T08:00:24;6.70;;;4.70;;
62071;SDS011;48031;48.542;13.232;2023-07-09T08:04:26;7.18;;;4.70;;
62071;SDS011;48031;48.542;13.232;2023-07-09T08:08:28;6.05;;;4.60;;
62071;SDS011;48031;48.542;13.232;2023-07-09T08:12:30;5.40;;;4.03;;
62071;SDS011;48031;48.542;13.232;2023-07-09T08:16:34;6.15;;;4.50;;
62071;SDS011;48031;48.542;13.232;2023-07-09T08:20:37;9.30;;;5.30;;
62071;SDS011;48031;48.542;13.232;2023-07-09T08:24:39;7.55;;;4.97;;
62071;SDS011;48031;48.542;13.232;2023-07-09T08:28:41;6.80;;;4.82;;
62071;SDS011;48031;48.542;13.232;2023-07-09T08:32:43;6.55;;;4.90;;
62071;SDS011;48031;48.542;13.232;2023-07-09T08:36:45;6.63;;;4.60;;
62071;SDS011;48031;48.542;13.232;2023-07-09T08:40:58;5.97;;;4.70;;
62071;SDS011;48031;48.542;13.232;2023-07-09T08:49:22;7.28;;;4.85;;
62071;SDS011;48031;48.542;13.232;2023-07-09T08:53:36;6.13;;;4.85;;
62071;SDS011;48031;48.542;13.232;2023-07-09T08:57:44;6.75;;;5.40;;
62071;SDS011;48031;48.542;13.232;2023-07-09T09:01:53;7.18;;;5.03;;
62071;SDS011;48031;48.542;13.232;2023-07-09T09:06:00;7.20;;;4.70;;
62071;SDS011;48031;48.542;13.232;2023-07-09T09:10:05;6.82;;;5.13;;
62071;SDS011;48031;48.542;13.232;2023-07-09T09:14:14;6.75;;;5.53;;
62071;SDS011;48031;48.542;13.232;2023-07-09T09:18:23;7.05;;;5.22;;
62071;SDS011;48031;48.542;13.232;2023-07-09T09:23:14;7.55;;;5.43;;
62071;SDS011;48031;48.542;13.232;2023-07-09T09:27:10;8.23;;;4.72;;
62071;SDS011;48031;48.542;13.232;2023-07-09T09:31:11;6.00;;;4.88;;
62071;SDS011;48031;48.542;13.232;2023-07-09T09:35:15;6.35;;;4.55;;
62071;SDS011;48031;48.542;13.232;2023-07-09T09:39:20;8.15;;;5.40;;
62071;SDS011;48031;48.542;13.232;2023-07-09T09:43:24;5.78;;;4.90;;
62071;SDS011;48031;48.542;13.232;2023-07-09T09:47:27;5.97;;;4.97;;
62071;SDS011;48031;48.542;13.232;2023-07-09T09:51:30;6.93;;;5.47;;
62071;SDS011;48031;48.542;13.232;2023-07-09T09:55:32;6.13;;;4.80;;
62071;SDS011;48031;48.542;13.232;2023-07-09T09:59:36;6.07;;;5.00;;
62071;SDS011;48031;48.542;13.232;2023-07-09T10:03:39;6.68;;;4.57;;
62071;SDS011;48031;48.542;13.232;2023-07-09T10:07:47;7.05;;;5.25;;
62071;SDS011;48031;48.542;13.232;2023-07-09T10:12:03;5.60;;;4.85;;
62071;SDS011;48031;48.542;13.232;2023-07-09T10:16:24;5.32;;;4.13;;
62071;SDS011;48031;48.542;13.232;2023-07-09T10:20:37;6.47;;;4.10;;
62071;SDS011;48031;48.542;13.232;2023-07-09T10:33:20;4.00;;;3.40;;
62071;SDS011;48031;48.542;13.232;2023-07-09T10:42:11;5.13;;;3.60;;
62071;SDS011;48031;48.542;13.232;2023-07-09T10:46:23;3.50;;;3.20;;
62071;SDS011;48031;48.542;13.232;2023-07-09T10:50:33;4.57;;;3.15;;
62071;SDS011;48031;48.542;13.232;2023-07-09T10:54:46;5.40;;;3.40;;
62071;SDS011;48031;48.542;13.232;2023-07-09T10:59:22;3.20;;;2.90;;
62071;SDS011;48031;48.542;13.232;2023-07-09T11:08:05;3.20;;;2.90;;
62071;SDS011;48031;48.542;13.232;2023-07-09T11:12:27;3.85;;;3.10;;
62071;SDS011;48031;48.542;13.232;2023-07-09T11:16:35;3.50;;;3.20;;
62071;SDS011;48031;48.542;13.232;2023-07-09T11:20:42;3.22;;;3.00;;
62071;SDS011;48031;48.542;13.232;2023-07-09T11:33:29;2.90;;;2.60;;
62071;SDS011;48031;48.542;13.232;2023-07-09T11:37:31;2.75;;;2.55;;
62071;SDS011;48031;48.542;13.232;2023-07-09T11:41:43;2.75;;;2.55;;
62071;SDS011;48031;48.542;13.232;2023-07-09T11:45:47;3.20;;;3.00;;
62071;SDS011;48031;48.542;13.232;2023-07-09T11:54:07;4.25;;;2.90;;
62071;SDS011;48031;48.542;13.232;2023-07-09T11:58:16;3.05;;;2.78;;
62071;SDS011;48031;48.542;13.232;2023-07-09T12:02:20;2.85;;;2.60;;
62071;SDS011;48031;48.542;13.232;2023-07-09T12:06:24;4.43;;;3.00;;
62071;SDS011;48031;48.542;13.232;2023-07-09T12:10:33;3.28;;;2.97;;
62071;SDS011;48031;48.542;13.232;2023-07-09T12:14:35;3.30;;;3.00;;
62071;SDS011;48031;48.542;13.232;2023-07-09T12:18:37;3.10;;;2.90;;
62071;SDS011;48031;48.542;13.232;2023-07-09T12:22:40;2.90;;;2.70;;
62071;SDS011;48031;48.542;13.232;2023-07-09T12:26:51;3.50;;;3.20;;
62071;SDS011;48031;48.542;13.232;2023-07-09T12:30:55;2.85;;;2.58;;
62071;SDS011;48031;48.542;13.232;2023-07-09T12:34:57;3.20;;;2.90;;
62071;SDS011;48031;48.542;13.232;2023-07-09T12:39:00;2.88;;;2.67;;
62071;SDS011;48031;48.542;13.232;2023-07-09T12:43:05;2.70;;;2.50;;
62071;SDS011;48031;48.542;13.232;2023-07-09T12:47:07;2.90;;;2.70;;
62071;SDS011;48031;48.542;13.232;2023-07-09T12:51:15;2.90;;;2.70;;
62071;SDS011;48031;48.542;13.232;2023-07-09T12:55:23;3.13;;;2.90;;
62071;SDS011;48031;48.542;13.232;2023-07-09T12:59:37;3.08;;;2.70;;
62071;SDS011;48031;48.542;13.232;2023-07-09T13:03:40;3.17;;;2.97;;
62071;SDS011;48031;48.542;13.232;2023-07-09T13:07:45;3.92;;;3.10;;
62071;SDS011;48031;48.542;13.232;2023-07-09T13:11:51;3.10;;;2.90;;
62071;SDS011;48031;48.542;13.232;2023-07-09T13:15:55;3.00;;;2.80;;
62071;SDS011;48031;48.542;13.232;2023-07-09T13:20:00;3.10;;;2.67;;
62071;SDS011;48031;48.542;13.232;2023-07-09T13:24:07;2.80;;;2.60;;
62071;SDS011;48031;48.542;13.232;2023-07-09T13:28:16;3.08;;;2.60;;
62071;SDS011;48031;48.542;13.232;2023-07-09T13:32:20;3.80;;;2.70;;
62071;SDS011;48031;48.542;13.232;2023-07-09T13:36:23;3.17;;;2.88;;
62071;SDS011;48031;48.542;13.232;2023-07-09T13:40:25;3.10;;;2.80;;
62071;SDS011;48031;48.542;13.232;2023-07-09T13:44:28;4.22;;;2.90;;
62071;SDS011;48031;48.542;13.232;2023-07-09T13:48:33;3.97;;;3.00;;
62071;SDS011;48031;48.542;13.232;2023-07-09T13:52:37;3.33;;;2.50;;
62071;SDS011;48031;48.542;13.232;2023-07-09T13:56:40;3.03;;;2.58;;
62071;SDS011;48031;48.542;13.232;2023-07-09T14:00:42;3.70;;;2.80;;
62071;SDS011;48031;48.542;13.232;2023-07-09T14:08:48;3.33;;;3.03;;
62071;SDS011;48031;48.542;13.232;2023-07-09T14:12:50;3.20;;;2.90;;
62071;SDS011;48031;48.542;13.232;2023-07-09T14:16:52;4.25;;;3.13;;
62071;SDS011;48031;48.542;13.232;2023-07-09T14:20:54;2.90;;;2.70;;
62071;SDS011;48031;48.542;13.232;2023-07-09T14:24:58;3.10;;;2.90;;
62071;SDS011;48031;48.542;13.232;2023-07-09T14:29:01;3.20;;;3.00;;
62071;SDS011;48031;48.542;13.232;2023-07-09T14:33:03;3.22;;;2.92;;
62071;SDS011;48031;48.542;13.232;2023-07-09T14:41:19;3.20;;;3.00;;
62071;SDS011;48031;48.542;13.232;2023-07-09T14:45:27;3.03;;;2.72;;
62071;SDS011;48031;48.542;13.232;2023-07-09T14:49:30;3.38;;;2.90;;
62071;SDS011;48031;48.542;13.232;2023-07-09T14:53:33;3.10;;;2.80;;
62071;SDS011;48031;48.542;13.232;2023-07-09T14:57:36;4.60;;;2.80;;
62071;SDS011;48031;48.542;13.232;2023-07-09T15:01:37;4.05;;;3.10;;
62071;SDS011;48031;48.542;13.232;2023-07-09T15:05:40;3.85;;;3.03;;
62071;SDS011;48031;48.542;13.232;2023-07-09T15:09:42;3.10;;;2.90;;
62071;SDS011;48031;48.542;13.232;2023-07-09T15:13:46;3.10;;;2.80;;
62071;SDS011;48031;48.542;13.232;2023-07-09T15:17:49;4.13;;;2.97;;
62071;SDS011;48031;48.542;13.232;2023-07-09T15:21:52;3.95;;;2.90;;
62071;SDS011;48031;48.542;13.232;2023-07-09T15:25:56;3.75;;;3.08;;
62071;SDS011;48031;48.542;13.232;2023-07-09T15:29:58;3.78;;;3.10;;
62071;SDS011;48031;48.542;13.232;2023-07-09T15:34:00;3.70;;;3.08;;
62071;SDS011;48031;48.542;13.232;2023-07-09T15:38:06;5.32;;;3.45;;
62071;SDS011;48031;48.542;13.232;2023-07-09T15:42:27;3.53;;;3.20;;
62071;SDS011;48031;48.542;13.232;2023-07-09T15:46:29;5.15;;;3.60;;
62071;SDS011;48031;48.542;13.232;2023-07-09T15:50:31;3.55;;;3.25;;
62071;SDS011;48031;48.542;13.232;2023-07-09T15:54:35;5.38;;;3.40;;
62071;SDS011;48031;48.542;13.232;2023-07-09T15:58:40;6.85;;;3.60;;
62071;SDS011;48031;48.542;13.232;2023-07-09T16:02:44;3.60;;;3.30;;
62071;SDS011;48031;48.542;13.232;2023-07-09T16:06:47;3.75;;;3.08;;
62071;SDS011;48031;48.542;13.232;2023-07-09T16:10:49;3.83;;;3.30;;
62071;SDS011;48031;48.542;13.232;2023-07-09T16:14:51;3.22;;;2.92;;
62071;SDS011;48031;48.542;13.232;2023-07-09T16:18:53;4.65;;;3.20;;
62071;SDS011;48031;48.542;13.232;2023-07-09T16:22:55;3.60;;;3.00;;
62071;SDS011;48031;48.542;13.232;2023-07-09T16:27:00;5.15;;;3.30;;
62071;SDS011;48031;48.542;13.232;2023-07-09T16:31:04;4.45;;;3.25;;
62071;SDS011;48031;48.542;13.232;2023-07-09T16:35:10;3.95;;;3.55;;
62071;SDS011;48031;48.542;13.232;2023-07-09T16:39:22;4.40;;;3.78;;
62071;SDS011;48031;48.542;13.232;2023-07-09T16:43:27;4.53;;;3.40;;
62071;SDS011;48031;48.542;13.232;2023-07-09T16:47:29;3.40;;;3.10;;
62071;SDS011;48031;48.542;13.232;2023-07-09T16:51:31;3.58;;;3.28;;
62071;SDS011;48031;48.542;13.232;2023-07-09T16:55:34;5.70;;;3.17;;
62071;SDS011;48031;48.542;13.232;2023-07-09T16:59:37;4.40;;;2.95;;
62071;SDS011;48031;48.542;13.232;2023-07-09T17:03:39;3.65;;;2.58;;
62071;SDS011;48031;48.542;13.232;2023-07-09T17:07:41;4.40;;;2.70;;
62071;SDS011;48031;48.542;13.232;2023-07-09T17:11:43;2.55;;;2.35;;
62071;SDS011;48031;48.542;13.232;2023-07-09T17:15:45;5.38;;;2.53;;
62071;SDS011;48031;48.542;13.232;2023-07-09T17:19:47;3.47;;;2.50;;
62071;SDS011;48031;48.542;13.232;2023-07-09T17:23:50;3.28;;;2.65;;
62071;SDS011;48031;48.542;13.232;2023-07-09T17:27:53;6.88;;;2.88;;
62071;SDS011;48031;48.542;13.232;2023-07-09T17:31:55;5.03;;;2.60;;
62071;SDS011;48031;48.542;13.232;2023-07-09T17:35:57;4.28;;;2.70;;
62071;SDS011;48031;48.542;13.232;2023-07-09T17:40:00;3.85;;;2.80;;
62071;SDS011;48031;48.542;13.232;2023-07-09T17:44:04;3.83;;;2.60;;
62071;SDS011;48031;48.542;13.232;2023-07-09T17:48:15;4.82;;;2.80;;
62071;SDS011;48031;48.542;13.232;2023-07-09T17:52:19;4.85;;;2.80;;
62071;SDS011;48031;48.542;13.232;2023-07-09T17:56:25;4.72;;;2.67;;
62071;SDS011;48031;48.542;13.232;2023-07-09T18:00:31;3.93;;;2.23;;
62071;SDS011;48031;48.542;13.232;2023-07-09T18:04:33;5.07;;;2.40;;
62071;SDS011;48031;48.542;13.232;2023-07-09T18:08:35;6.07;;;3.00;;
62071;SDS011;48031;48.542;13.232;2023-07-09T18:12:37;4.10;;;2.80;;
62071;SDS011;48031;48.542;13.232;2023-07-09T18:16:39;4.10;;;2.60;;
62071;SDS011;48031;48.542;13.232;2023-07-09T18:20:44;3.00;;;2.42;;
62071;SDS011;48031;48.542;13.232;2023-07-09T18:24:46;4.68;;;2.72;;
62071;SDS011;48031;48.542;13.232;2023-07-09T18:28:50;4.22;;;2.42;;
62071;SDS011;48031;48.542;13.232;2023-07-09T18:32:54;4.22;;;2.67;;
62071;SDS011;48031;48.542;13.232;2023-07-09T18:37:00;4.50;;;2.63;;
62071;SDS011;48031;48.542;13.232;2023-07-09T18:41:11;3.70;;;2.60;;
62071;SDS011;48031;48.542;13.232;2023-07-09T18:45:20;4.63;;;2.50;;
62071;SDS011;48031;48.542;13.232;2023-07-09T18:49:24;5.90;;;2.58;;
62071;SDS011;48031;48.542;13.232;2023-07-09T18:53:26;4.32;;;2.53;;
62071;SDS011;48031;48.542;13.232;2023-07-09T18:57:30;4.63;;;2.95;;
62071;SDS011;48031;48.542;13.232;2023-07-09T19:01:32;3.92;;;2.83;;
62071;SDS011;48031;48.542;13.232;2023-07-09T19:05:35;3.40;;;2.72;;
62071;SDS011;48031;48.542;13.232;2023-07-09T19:09:37;4.68;;;2.88;;
62071;SDS011;48031;48.542;13.232;2023-07-09T19:13:39;5.95;;;2.92;;
62071;SDS011;48031;48.542;13.232;2023-07-09T19:17:41;3.60;;;3.00;;
62071;SDS011;48031;48.542;13.232;2023-07-09T19:21:44;3.25;;;2.70;;
62071;SDS011;48031;48.542;13.232;2023-07-09T19:25:49;4.95;;;2.80;;
62071;SDS011;48031;48.542;13.232;2023-07-09T19:29:52;4.88;;;2.88;;
62071;SDS011;48031;48.542;13.232;2023-07-09T19:33:56;5.70;;;2.92;;
62071;SDS011;48031;48.542;13.232;2023-07-09T19:37:58;6.28;;;3.35;;
62071;SDS011;48031;48.542;13.232;2023-07-09T19:42:13;3.63;;;2.95;;
62071;SDS011;48031;48.542;13.232;2023-07-09T19:46:20;4.63;;;3.08;;
62071;SDS011;48031;48.542;13.232;2023-07-09T19:50:26;6.25;;;3.30;;
62071;SDS011;48031;48.542;13.232;2023-07-09T19:54:31;4.95;;;3.58;;
62071;SDS011;48031;48.542;13.232;2023-07-09T19:58:36;4.72;;;3.38;;
62071;SDS011;48031;48.542;13.232;2023-07-09T20:02:41;8.23;;;3.35;;
62071;SDS011;48031;48.542;13.232;2023-07-09T20:06:44;5.03;;;3.42;;
62071;SDS011;48031;48.542;13.232;2023-07-09T20:10:46;5.25;;;3.70;;
62071;SDS011;48031;48.542;13.232;2023-07-09T20:14:50;3.90;;;2.88;;
62071;SDS011;48031;48.542;13.232;2023-07-09T20:18:53;4.80;;;3.15;;
62071;SDS011;48031;48.542;13.232;2023-07-09T20:22:56;4.15;;;3.03;;
62071;SDS011;48031;48.542;13.232;2023-07-09T20:26:59;5.93;;;2.70;;
62071;SDS011;48031;48.542;13.232;2023-07-09T20:31:01;3.90;;;2.92;;
62071;SDS011;48031;48.542;13.232;2023-07-09T20:35:12;3.30;;;2.50;;
62071;SDS011;48031;48.542;13.232;2023-07-09T20:39:23;3.08;;;2.58;;
62071;SDS011;48031;48.542;13.232;2023-07-09T20:43:26;4.75;;;2.55;;
62071;SDS011;48031;48.542;13.232;2023-07-09T20:47:30;3.25;;;2.50;;
62071;SDS011;48031;48.542;13.232;2023-07-09T20:51:33;4.40;;;2.80;;
62071;SDS011;48031;48.542;13.232;2023-07-09T20:55:35;3.75;;;2.90;;
62071;SDS011;48031;48.542;13.232;2023-07-09T20:59:39;7.32;;;3.08;;
62071;SDS011;48031;48.542;13.232;2023-07-09T21:18:47;3.35;;;2.60;;
62071;SDS011;48031;48.542;13.232;2023-07-09T21:22:51;2.88;;;2.40;;
62071;SDS011;48031;48.542;13.232;2023-07-09T21:26:54;3.45;;;2.38;;
62071;SDS011;48031;48.542;13.232;2023-07-09T21:30:57;3.60;;;2.35;;
62071;SDS011;48031;48.542;13.232;2023-07-09T21:35:01;3.63;;;2.47;;
62071;SDS011;48031;48.542;13.232;2023-07-09T21:39:18;3.67;;;2.70;;
62071;SDS011;48031;48.542;13.232;2023-07-09T21:43:21;3.80;;;2.50;;
62071;SDS011;48031;48.542;13.232;2023-07-09T21:47:26;4.72;;;2.70;;
62071;SDS011;48031;48.542;13.232;2023-07-09T21:51:29;2.88;;;2.58;;
62071;SDS011;48031;48.542;13.232;2023-07-09T21:55:31;8.15;;;2.97;;
62071;SDS011;48031;48.542;13.232;2023-07-09T21:59:34;3.58;;;2.58;;
62071;SDS011;48031;48.542;13.232;2023-07-09T22:03:35;3.45;;;2.80;;
62071;SDS011;48031;48.542;13.232;2023-07-09T22:07:38;2.63;;;2.40;;
62071;SDS011;48031;48.542;13.232;2023-07-09T22:11:42;3.33;;;2.72;;
62071;SDS011;48031;48.542;13.232;2023-07-09T22:15:50;4.57;;;2.70;;
62071;SDS011;48031;48.542;13.232;2023-07-09T22:19:56;3.88;;;2.70;;
62071;SDS011;48031;48.542;13.232;2023-07-09T22:24:00;3.92;;;2.55;;
62071;SDS011;48031;48.542;13.232;2023-07-09T22:28:04;3.13;;;2.60;;
62071;SDS011;48031;48.542;13.232;2023-07-09T22:32:06;4.57;;;2.70;;
62071;SDS011;48031;48.542;13.232;2023-07-09T22:36:14;4.50;;;2.70;;
62071;SDS011;48031;48.542;13.232;2023-07-09T22:40:21;5.63;;;2.97;;
62071;SDS011;48031;48.542;13.232;2023-07-09T22:44:26;3.67;;;2.85;;
62071;SDS011;48031;48.542;13.232;2023-07-09T22:48:28;3.42;;;2.60;;
62071;SDS011;48031;48.542;13.232;2023-07-09T22:52:32;4.55;;;2.90;;
62071;SDS011;48031;48.542;13.232;2023-07-09T22:56:37;4.45;;;2.90;;
62071;SDS011;48031;48.542;13.232;2023-07-09T23:04:51;3.97;;;2.72;;
62071;SDS011;48031;48.542;13.232;2023-07-09T23:08:57;4.20;;;2.90;;
62071;SDS011;48031;48.542;13.232;2023-07-09T23:12:59;3.42;;;3.03;;
62071;SDS011;48031;48.542;13.232;2023-07-09T23:17:04;4.18;;;3.00;;
62071;SDS011;48031;48.542;13.232;2023-07-09T23:21:14;7.80;;;3.25;;
62071;SDS011;48031;48.542;13.232;2023-07-09T23:25:21;3.70;;;3.15;;
62071;SDS011;48031;48.542;13.232;2023-07-09T23:29:25;4.25;;;2.97;;
62071;SDS011;48031;48.542;13.232;2023-07-09T23:33:29;3.78;;;2.97;;
62071;SDS011;48031;48.542;13.232;2023-07-09T23:37:33;4.50;;;3.00;;
62071;SDS011;48031;48.542;13.232;2023-07-09T23:41:36;3.25;;;2.92;;
62071;SDS011;48031;48.542;13.232;2023-07-09T23:45:40;4.40;;;3.10;;
62071;SDS011;48031;48.542;13.232;2023-07-09T23:49:43;3.78;;;3.30;;
62071;SDS011;48031;48.542;13.232;2023-07-09T23:53:45;5.43;;;3.30;;
62071;SDS011;48031;48.542;13.232;2023-07-09T23:57:55;4.70;;;3.50;;
